createdAt,value
2018-05-12T00:00:08.005Z,62.98
2018-05-12T00:02:35.548Z,62.90
2018-05-12T00:05:03.077Z,62.86
2018-05-12T00:07:30.718Z,63.25
2018-05-12T00:09:58.245Z,63.45
2018-05-12T00:12:25.760Z,63.35
2018-05-12T00:14:53.634Z,63.71
2018-05-12T00:17:21.084Z,63.48
2018-05-12T00:19:48.604Z,64.05
2018-05-12T00:22:16.351Z,64.15
2018-05-12T00:24:43.880Z,64.00
2018-05-12T00:27:11.408Z,64.21
2018-05-12T00:29:39.108Z,64.92
2018-05-12T00:32:06.633Z,65.35
2018-05-12T00:34:34.331Z,64.92
2018-05-12T00:37:02.340Z,64.53
2018-05-12T00:39:30.394Z,64.24
2018-05-12T00:41:57.912Z,64.81
2018-05-12T00:44:25.482Z,65.42
2018-05-12T00:46:53.012Z,65.37
2018-05-12T00:49:20.545Z,65.84
2018-05-12T00:51:48.312Z,65.98
2018-05-12T00:54:15.844Z,65.54
2018-05-12T00:56:43.410Z,65.66
2018-05-12T00:59:11.124Z,65.72
2018-05-12T01:01:38.659Z,65.96
2018-05-12T01:04:06.181Z,65.60
2018-05-12T01:06:33.748Z,65.51
2018-05-12T01:09:01.272Z,65.73
2018-05-12T01:11:28.805Z,65.83
2018-05-12T01:13:56.777Z,66.34
2018-05-12T01:16:24.308Z,65.62
2018-05-12T01:18:51.852Z,65.70
2018-05-12T01:21:19.428Z,66.61
2018-05-12T01:23:47.115Z,66.65
2018-05-12T01:26:14.640Z,67.41
2018-05-12T01:28:42.943Z,67.01
2018-05-12T01:31:10.784Z,66.24
2018-05-12T01:33:38.312Z,66.03
2018-05-12T01:36:06.276Z,66.23
2018-05-12T01:38:33.801Z,65.86
2018-05-12T01:41:01.328Z,65.74
2018-05-12T01:43:29.160Z,65.26
2018-05-12T01:45:56.684Z,64.85
2018-05-12T01:48:24.217Z,65.44
2018-05-12T01:50:51.861Z,65.94
2018-05-12T01:53:19.384Z,65.82
2018-05-12T01:55:46.942Z,65.96
2018-05-12T01:58:14.500Z,65.78
2018-05-12T02:00:42.020Z,66.08
2018-05-12T02:03:09.559Z,66.16
2018-05-12T02:05:37.528Z,66.13
2018-05-12T02:08:05.056Z,66.58
2018-05-12T02:10:32.584Z,66.09
2018-05-12T02:13:00.280Z,66.35
2018-05-12T02:15:27.800Z,67.19
2018-05-12T02:17:55.329Z,66.88
2018-05-12T02:20:22.892Z,66.60
2018-05-12T02:22:50.416Z,66.21
2018-05-12T02:25:17.945Z,66.28
2018-05-12T02:27:45.641Z,66.26
2018-05-12T02:30:13.165Z,66.26
2018-05-12T02:32:40.689Z,66.35
2018-05-12T02:35:08.731Z,66.16
2018-05-12T02:37:36.276Z,66.14
2018-05-12T02:40:03.806Z,66.35
2018-05-12T02:42:31.517Z,66.64
2018-05-12T02:44:59.041Z,66.69
2018-05-12T02:47:26.567Z,66.46
2018-05-12T02:49:54.130Z,66.43
2018-05-12T02:52:21.717Z,67.09
2018-05-12T02:54:49.250Z,67.97
2018-05-12T02:57:16.814Z,68.20
2018-05-12T02:59:44.343Z,67.68
2018-05-12T03:02:11.905Z,67.77
2018-05-12T03:04:39.852Z,67.54
2018-05-12T03:07:07.381Z,68.72
2018-05-12T03:09:34.907Z,68.04
2018-05-12T03:12:02.536Z,68.88
2018-05-12T03:14:30.056Z,68.09
2018-05-12T03:16:57.584Z,67.05
2018-05-12T03:19:25.308Z,67.22
2018-05-12T03:21:52.907Z,67.35
2018-05-12T03:24:20.520Z,67.81
2018-05-12T03:26:48.296Z,67.20
2018-05-12T03:29:15.815Z,67.01
2018-05-12T03:31:43.335Z,67.45
2018-05-12T03:34:10.880Z,68.32
2018-05-12T03:36:38.401Z,68.61
2018-05-12T03:39:05.920Z,68.46
2018-05-12T03:41:33.758Z,67.84
2018-05-12T03:44:01.285Z,68.20
2018-05-12T03:46:29.840Z,68.72
2018-05-12T03:48:58.257Z,69.29
2018-05-12T03:51:26.929Z,69.55
2018-05-12T03:53:54.752Z,69.44
2018-05-12T03:56:22.483Z,70.12
2018-05-12T03:58:49.996Z,70.20
2018-05-12T04:01:17.508Z,70.55
2018-05-12T04:03:45.524Z,71.56
2018-05-12T04:06:24.860Z,70.82
2018-05-12T04:09:04.268Z,70.37
2018-05-12T04:11:43.662Z,70.45
2018-05-12T04:14:11.451Z,70.78
2018-05-12T04:16:38.976Z,70.75
2018-05-12T04:19:06.500Z,70.64
2018-05-12T04:21:34.440Z,70.21
2018-05-12T04:24:01.970Z,69.67
2018-05-12T04:26:29.492Z,67.91
2018-05-12T04:28:57.217Z,67.44
2018-05-12T04:31:24.740Z,69.38
2018-05-12T04:33:52.260Z,69.48
2018-05-12T04:36:19.992Z,70.38
2018-05-12T04:38:47.529Z,69.96
2018-05-12T04:41:15.059Z,69.32
2018-05-12T04:43:43.080Z,68.07
2018-05-12T04:46:10.625Z,66.42
2018-05-12T04:48:38.148Z,66.05
2018-05-12T04:51:05.864Z,65.28
2018-05-12T04:53:33.389Z,65.62
2018-05-12T04:56:00.951Z,66.50
2018-05-12T04:58:28.748Z,65.86
2018-05-12T05:00:56.368Z,67.00
2018-05-12T05:03:23.896Z,65.89
2018-05-12T05:05:52.217Z,65.02
2018-05-12T05:08:19.834Z,64.83
2018-05-12T05:10:47.290Z,66.04
2018-05-12T05:13:14.865Z,66.59
2018-05-12T05:15:42.392Z,66.56
2018-05-12T05:18:09.923Z,64.93
2018-05-12T05:20:37.484Z,64.01
2018-05-12T05:23:05.004Z,63.25
2018-05-12T05:25:32.525Z,63.23
2018-05-12T05:28:00.060Z,63.32
2018-05-12T05:30:27.576Z,63.90
2018-05-12T05:32:55.523Z,64.23
2018-05-12T05:35:23.159Z,65.01
2018-05-12T05:37:50.676Z,64.90
2018-05-12T05:40:18.390Z,64.67
2018-05-12T05:42:46.140Z,63.72
2018-05-12T05:45:13.664Z,62.84
2018-05-12T05:47:41.200Z,63.05
2018-05-12T05:50:09.131Z,62.78
2018-05-12T05:52:36.676Z,63.04
2018-05-12T05:55:04.193Z,63.31
2018-05-12T05:57:31.916Z,62.42
2018-05-12T05:59:59.433Z,61.83
2018-05-12T06:02:26.948Z,61.23
2018-05-12T06:04:54.792Z,61.07
2018-05-12T06:07:22.308Z,60.29
2018-05-12T06:09:49.819Z,60.95
2018-05-12T06:12:17.396Z,59.94
2018-05-12T06:14:44.912Z,59.62
2018-05-12T06:17:12.428Z,60.11
2018-05-12T06:19:40.352Z,59.07
2018-05-12T06:22:07.881Z,58.93
2018-05-12T06:24:35.401Z,58.63
2018-05-12T06:27:02.977Z,57.37
2018-05-12T06:29:30.617Z,56.29
2018-05-12T06:31:58.136Z,55.16
2018-05-12T06:34:25.919Z,54.57
2018-05-12T06:36:53.437Z,53.58
2018-05-12T06:39:20.956Z,52.13
2018-05-12T06:41:48.533Z,50.95
2018-05-12T06:44:16.051Z,50.87
2018-05-12T06:46:43.626Z,50.51
2018-05-12T06:49:11.150Z,49.20
2018-05-12T06:51:38.674Z,48.70
2018-05-12T06:54:07.221Z,47.71
2018-05-12T06:56:37.456Z,47.34
2018-05-12T06:59:05.700Z,45.51
2018-05-12T07:01:34.177Z,42.62
2018-05-12T07:04:02.796Z,42.36
2018-05-12T07:06:31.648Z,41.80
2018-05-12T07:08:59.451Z,41.09
2018-05-12T07:11:27.096Z,40.41
2018-05-12T07:13:55.419Z,39.91
2018-05-12T07:16:25.028Z,39.42
2018-05-12T07:18:53.276Z,39.76
2018-05-12T07:21:21.631Z,39.17
2018-05-12T07:23:49.673Z,38.25
2018-05-12T07:26:18.199Z,38.33
2018-05-12T07:28:46.130Z,39.42
2018-05-12T07:31:13.692Z,37.80
2018-05-12T07:33:41.365Z,35.99
2018-05-12T07:36:09.978Z,35.28
2018-05-12T07:38:37.621Z,35.61
2018-05-12T07:41:05.761Z,35.20
2018-05-12T07:43:34.498Z,34.24
2018-05-12T07:46:03.696Z,32.29
2018-05-12T07:48:32.676Z,31.47
2018-05-12T07:51:02.227Z,32.30
2018-05-12T07:53:29.799Z,33.36
2018-05-12T07:55:57.518Z,33.75
2018-05-12T07:58:27.637Z,32.92
2018-05-12T08:00:56.125Z,31.17
2018-05-12T08:03:25.569Z,31.75
2018-05-12T08:05:54.309Z,32.70
2018-05-12T08:08:22.280Z,31.73
2018-05-12T08:10:50.285Z,31.98
2018-05-12T08:13:18.858Z,30.80
2018-05-12T08:15:46.805Z,30.40
2018-05-12T08:18:16.893Z,30.59
2018-05-12T08:20:44.888Z,31.03
2018-05-12T08:23:12.449Z,29.47
2018-05-12T08:25:40.189Z,29.94
2018-05-12T08:28:08.677Z,30.91
2018-05-12T08:30:36.792Z,29.87
2018-05-12T08:33:04.944Z,29.55
2018-05-12T08:35:33.467Z,29.70
2018-05-12T08:38:01.910Z,28.85
2018-05-12T08:40:30.503Z,28.56
2018-05-12T08:42:58.050Z,28.85
2018-05-12T08:45:26.716Z,30.01
2018-05-12T08:47:56.239Z,27.87
2018-05-12T08:50:24.344Z,28.91
2018-05-12T08:52:52.410Z,28.51
2018-05-12T08:55:21.945Z,27.01
2018-05-12T08:57:50.770Z,25.76
2018-05-12T09:00:18.536Z,25.92
2018-05-12T09:02:47.014Z,25.15
2018-05-12T09:05:14.987Z,24.85
2018-05-12T09:07:43.837Z,24.24
2018-05-12T09:10:12.562Z,24.47
2018-05-12T09:12:40.428Z,23.69
2018-05-12T09:15:08.501Z,22.75
2018-05-12T09:17:36.442Z,22.10
2018-05-12T09:20:04.665Z,21.75
2018-05-12T09:22:32.588Z,20.68
2018-05-12T09:25:00.775Z,19.92
2018-05-12T09:27:28.549Z,19.09
2018-05-12T09:29:56.132Z,19.43
2018-05-12T09:32:24.236Z,20.02
2018-05-12T09:34:52.357Z,19.14
2018-05-12T09:37:19.912Z,17.61
2018-05-12T09:39:47.797Z,17.98
2018-05-12T09:42:15.394Z,17.91
2018-05-12T09:44:42.862Z,17.40
2018-05-12T09:47:11.073Z,18.41
2018-05-12T09:49:38.592Z,19.33
2018-05-12T09:52:06.110Z,18.35
2018-05-12T09:54:33.916Z,16.52
2018-05-12T09:57:01.429Z,16.91
2018-05-12T09:59:29.101Z,15.65
2018-05-12T10:01:56.758Z,15.76
2018-05-12T10:04:24.398Z,15.28
2018-05-12T10:06:51.964Z,15.51
2018-05-12T10:09:19.784Z,15.10
2018-05-12T10:11:47.321Z,15.21
2018-05-12T10:14:14.839Z,14.37
2018-05-12T10:16:42.419Z,14.07
2018-05-12T10:19:09.980Z,14.49
2018-05-12T10:21:37.501Z,14.47
2018-05-12T10:24:05.994Z,14.51
2018-05-12T10:26:33.884Z,15.68
2018-05-12T10:29:01.820Z,15.21
2018-05-12T10:31:31.491Z,14.33
2018-05-12T10:33:59.101Z,14.30
2018-05-12T10:36:26.672Z,14.78
2018-05-12T10:38:54.241Z,18.67
2018-05-12T10:41:21.768Z,17.25
2018-05-12T10:43:49.305Z,17.10
2018-05-12T10:46:16.861Z,16.19
2018-05-12T10:48:44.380Z,17.07
2018-05-12T10:51:11.896Z,18.91
2018-05-12T10:53:39.452Z,18.56
2018-05-12T10:56:06.984Z,17.85
2018-05-12T10:58:34.503Z,16.38
2018-05-12T11:01:02.235Z,15.67
2018-05-12T11:03:29.749Z,14.07
2018-05-12T11:05:57.268Z,14.16
2018-05-12T11:08:25.013Z,15.74
2018-05-12T11:10:52.525Z,16.73
2018-05-12T11:13:20.050Z,17.28
2018-05-12T11:15:47.617Z,15.63
2018-05-12T11:18:15.122Z,14.61
2018-05-12T11:20:42.661Z,15.69
2018-05-12T11:23:10.369Z,15.16
2018-05-12T11:25:37.890Z,15.24
2018-05-12T11:28:05.413Z,18.38
2018-05-12T11:30:33.203Z,20.18
2018-05-12T11:33:00.733Z,23.21
2018-05-12T11:35:28.257Z,24.09
2018-05-12T11:37:55.929Z,22.24
2018-05-12T11:40:23.457Z,21.94
2018-05-12T11:42:50.984Z,23.02
2018-05-12T11:45:18.918Z,23.06
2018-05-12T11:47:46.441Z,22.29
2018-05-12T11:50:14.184Z,20.44
2018-05-12T11:52:42.659Z,22.39
2018-05-12T11:55:10.176Z,22.41
2018-05-12T11:57:37.692Z,20.26
2018-05-12T12:00:05.344Z,15.09
2018-05-12T12:02:32.910Z,14.14
2018-05-12T12:05:00.388Z,14.41
2018-05-12T12:07:28.176Z,15.03
2018-05-12T12:09:55.711Z,13.51
2018-05-12T12:12:23.236Z,13.28
2018-05-12T12:14:50.880Z,13.13
2018-05-12T12:17:18.397Z,12.26
2018-05-12T12:19:45.917Z,12.17
2018-05-12T12:22:13.844Z,13.10
2018-05-12T12:24:41.364Z,12.52
2018-05-12T12:27:08.874Z,13.87
2018-05-12T12:29:36.528Z,16.84
2018-05-12T12:32:04.044Z,19.51
2018-05-12T12:34:31.560Z,20.35
2018-05-12T12:36:59.300Z,18.29
2018-05-12T12:39:26.860Z,16.88
2018-05-12T12:41:54.373Z,14.38
2018-05-12T12:44:22.089Z,15.03
2018-05-12T12:46:49.611Z,14.73
2018-05-12T12:49:17.157Z,14.28
2018-05-12T12:51:44.802Z,16.35
2018-05-12T12:54:12.241Z,18.42
2018-05-12T12:56:39.879Z,17.51
2018-05-12T12:59:07.909Z,13.91
2018-05-12T13:01:35.534Z,12.72
2018-05-12T13:04:03.089Z,11.54
2018-05-12T13:06:30.827Z,12.28
2018-05-12T13:08:58.357Z,15.19
2018-05-12T13:11:25.891Z,16.93
2018-05-12T13:13:53.492Z,18.04
2018-05-12T13:16:21.008Z,19.60
2018-05-12T13:18:48.526Z,19.32
2018-05-12T13:21:16.185Z,19.58
2018-05-12T13:23:43.708Z,17.88
2018-05-12T13:26:11.220Z,16.29
2018-05-12T13:28:38.941Z,14.23
2018-05-12T13:31:06.457Z,13.13
2018-05-12T13:33:33.974Z,12.91
2018-05-12T13:36:01.540Z,12.73
2018-05-12T13:38:29.129Z,13.03
2018-05-12T13:40:56.661Z,13.65
2018-05-12T13:43:24.220Z,13.35
2018-05-12T13:45:51.887Z,14.48
2018-05-12T13:48:19.400Z,15.68
2018-05-12T13:50:47.068Z,16.20
2018-05-12T13:53:14.605Z,19.07
2018-05-12T13:55:42.138Z,17.46
2018-05-12T13:58:09.739Z,16.93
2018-05-12T14:00:37.253Z,15.45
2018-05-12T14:03:04.765Z,14.67
2018-05-12T14:05:32.305Z,13.78
2018-05-12T14:07:59.853Z,15.23
2018-05-12T14:10:27.365Z,15.06
2018-05-12T14:12:55.066Z,15.87
2018-05-12T14:15:22.622Z,16.70
2018-05-12T14:17:50.157Z,17.76
2018-05-12T14:20:17.921Z,19.97
2018-05-12T14:22:45.457Z,20.07
2018-05-12T14:25:12.966Z,20.50
2018-05-12T14:27:40.653Z,21.11
2018-05-12T14:30:08.465Z,21.43
2018-05-12T14:32:37.700Z,21.40
2018-05-12T14:35:05.845Z,21.01
2018-05-12T14:37:34.056Z,21.13
2018-05-12T14:40:02.814Z,21.93
2018-05-12T14:42:30.670Z,22.26
2018-05-12T14:44:58.609Z,22.50
2018-05-12T14:47:26.130Z,22.92
2018-05-12T14:49:53.676Z,22.91
2018-05-12T14:52:21.188Z,23.43
2018-05-12T14:54:48.709Z,22.88
2018-05-12T14:57:16.866Z,22.63
2018-05-12T14:59:44.396Z,20.79
2018-05-12T15:02:12.185Z,19.65
2018-05-12T15:04:39.939Z,18.45
2018-05-12T15:07:09.548Z,17.64
2018-05-12T15:09:37.076Z,16.82
2018-05-12T15:12:04.884Z,16.83
2018-05-12T15:14:32.435Z,16.57
2018-05-12T15:17:00.188Z,16.22
2018-05-12T15:19:27.846Z,16.50
2018-05-12T15:21:55.360Z,17.06
2018-05-12T15:24:22.893Z,16.91
2018-05-12T15:26:50.701Z,17.92
2018-05-12T15:29:18.235Z,18.29
2018-05-12T15:31:46.589Z,18.97
2018-05-12T15:34:14.326Z,20.48
2018-05-12T15:36:41.833Z,20.72
2018-05-12T15:39:09.572Z,21.32
2018-05-12T15:41:37.655Z,22.08
2018-05-12T15:44:05.223Z,21.99
2018-05-12T15:46:32.716Z,21.66
2018-05-12T15:49:01.857Z,21.77
2018-05-12T15:51:29.834Z,21.25
2018-05-12T15:53:57.599Z,21.09
2018-05-12T15:56:25.277Z,21.27
2018-05-12T15:58:53.592Z,21.29
2018-05-12T16:01:21.106Z,21.95
2018-05-12T16:03:48.740Z,23.32
2018-05-12T16:06:17.089Z,23.97
2018-05-12T16:08:45.858Z,24.57
2018-05-12T16:11:13.478Z,24.52
2018-05-12T16:13:41.550Z,24.63
2018-05-12T16:16:09.067Z,24.41
2018-05-12T16:18:36.734Z,24.40
2018-05-12T16:21:04.255Z,24.04
2018-05-12T16:23:32.503Z,24.37
2018-05-12T16:26:00.201Z,24.60
2018-05-12T16:28:28.830Z,25.28
2018-05-12T16:30:56.428Z,25.20
2018-05-12T16:33:25.108Z,25.25
2018-05-12T16:35:52.616Z,25.78
2018-05-12T16:38:20.129Z,25.41
2018-05-12T16:40:47.958Z,25.34
2018-05-12T16:43:15.472Z,25.69
2018-05-12T16:45:42.996Z,26.05
2018-05-12T16:48:10.940Z,25.67
2018-05-12T16:50:38.560Z,25.18
2018-05-12T16:53:06.396Z,25.35
2018-05-12T16:55:34.128Z,24.85
2018-05-12T16:58:01.763Z,25.48
2018-05-12T17:00:29.283Z,26.27
2018-05-12T17:02:57.069Z,26.17
2018-05-12T17:05:24.673Z,25.11
2018-05-12T17:07:52.208Z,24.51
2018-05-12T17:10:19.901Z,24.08
2018-05-12T17:12:47.583Z,24.20
2018-05-12T17:15:15.137Z,23.68
2018-05-12T17:17:43.090Z,23.63
2018-05-12T17:20:10.617Z,24.09
2018-05-12T17:22:38.125Z,24.54
2018-05-12T17:25:06.094Z,24.55
2018-05-12T17:27:34.064Z,24.78
2018-05-12T17:30:01.575Z,24.78
2018-05-12T17:32:29.152Z,24.95
2018-05-12T17:34:56.656Z,24.71
2018-05-12T17:37:24.179Z,25.05
2018-05-12T17:39:52.017Z,25.35
2018-05-12T17:42:19.536Z,25.23
2018-05-12T17:44:47.167Z,25.47
2018-05-12T17:47:15.076Z,25.27
2018-05-12T17:49:43.335Z,25.42
2018-05-12T17:52:11.498Z,25.68
2018-05-12T17:54:39.101Z,25.81
2018-05-12T17:57:06.787Z,26.58
2018-05-12T17:59:36.494Z,26.77
2018-05-12T18:02:05.296Z,27.31
2018-05-12T18:04:32.975Z,27.46
2018-05-12T18:07:01.144Z,28.02
2018-05-12T18:09:29.027Z,27.96
2018-05-12T18:11:57.778Z,28.08
2018-05-12T18:14:25.791Z,28.30
2018-05-12T18:16:53.396Z,28.76
2018-05-12T18:19:21.117Z,28.74
2018-05-12T18:21:48.633Z,28.84
2018-05-12T18:24:16.530Z,29.28
2018-05-12T18:26:44.112Z,29.73
2018-05-12T18:29:12.264Z,30.03
2018-05-12T18:31:39.881Z,30.43
2018-05-12T18:34:07.449Z,30.53
2018-05-12T18:36:34.976Z,30.68
2018-05-12T18:39:03.097Z,30.69
2018-05-12T18:41:30.880Z,30.89
2018-05-12T18:43:58.539Z,31.40
2018-05-12T18:46:26.411Z,31.31
2018-05-12T18:48:53.959Z,31.81
2018-05-12T18:51:21.822Z,32.27
2018-05-12T18:53:49.906Z,32.84
2018-05-12T18:56:17.542Z,32.97
2018-05-12T18:58:45.061Z,33.12
2018-05-12T19:01:13.088Z,33.27
2018-05-12T19:03:40.759Z,33.62
2018-05-12T19:06:08.322Z,33.48
2018-05-12T19:08:36.092Z,34.06
2018-05-12T19:11:03.666Z,33.78
2018-05-12T19:13:32.061Z,33.87
2018-05-12T19:15:59.864Z,34.15
2018-05-12T19:18:27.550Z,34.02
2018-05-12T19:20:55.327Z,34.77
2018-05-12T19:23:22.921Z,34.42
2018-05-12T19:25:50.642Z,34.85
2018-05-12T19:28:18.274Z,34.67
2018-05-12T19:30:46.029Z,34.78
2018-05-12T19:33:13.555Z,34.72
2018-05-12T19:35:41.094Z,34.75
2018-05-12T19:38:09.000Z,34.49
2018-05-12T19:40:36.708Z,34.64
2018-05-12T19:43:05.353Z,34.63
2018-05-12T19:45:34.537Z,35.58
2018-05-12T19:48:02.131Z,37.64
2018-05-12T19:50:29.701Z,37.35
2018-05-12T19:52:57.641Z,37.55
2018-05-12T19:55:25.156Z,37.29
2018-05-12T19:57:52.713Z,37.53
2018-05-12T20:00:20.652Z,37.37
2018-05-12T20:02:48.199Z,37.33
2018-05-12T20:05:15.989Z,36.73
2018-05-12T20:07:43.552Z,35.74
2018-05-12T20:10:11.184Z,35.16
2018-05-12T20:12:38.769Z,35.06
2018-05-12T20:15:06.726Z,35.56
2018-05-12T20:17:34.387Z,35.93
2018-05-12T20:20:02.040Z,37.36
2018-05-12T20:22:30.207Z,37.71
2018-05-12T20:24:57.760Z,37.27
2018-05-12T20:27:25.317Z,37.21
2018-05-12T20:29:53.009Z,37.46
2018-05-12T20:32:20.551Z,37.25
2018-05-12T20:34:48.174Z,37.48
2018-05-12T20:37:16.098Z,37.73
2018-05-12T20:39:43.602Z,37.76
2018-05-12T20:42:11.193Z,37.64
2018-05-12T20:44:38.884Z,37.95
2018-05-12T20:47:06.686Z,40.05
2018-05-12T20:49:34.323Z,40.71
2018-05-12T20:52:02.093Z,41.45
2018-05-12T20:54:29.613Z,40.98
2018-05-12T20:56:57.195Z,42.76
2018-05-12T20:59:25.007Z,42.65
2018-05-12T21:01:52.932Z,42.33
2018-05-12T21:04:20.507Z,41.49
2018-05-12T21:06:48.060Z,42.36
2018-05-12T21:09:17.364Z,43.74
2018-05-12T21:11:45.521Z,42.86
2018-05-12T21:14:13.411Z,43.79
2018-05-12T21:16:40.896Z,43.32
2018-05-12T21:19:08.677Z,44.21
2018-05-12T21:21:36.586Z,44.29
2018-05-12T21:24:04.451Z,44.92
2018-05-12T21:26:32.108Z,44.68
2018-05-12T21:29:00.687Z,45.34
2018-05-12T21:31:28.319Z,45.41
2018-05-12T21:33:55.860Z,46.33
2018-05-12T21:36:23.776Z,48.33
2018-05-12T21:38:51.361Z,50.03
2018-05-12T21:41:19.000Z,50.28
2018-05-12T21:43:47.258Z,51.98
2018-05-12T21:46:14.833Z,52.60
2018-05-12T21:48:42.417Z,54.75
2018-05-12T21:51:10.345Z,55.68
2018-05-12T21:53:37.920Z,57.03
2018-05-12T21:56:05.974Z,57.45
2018-05-12T21:58:33.859Z,58.93
2018-05-12T22:01:01.421Z,59.41
2018-05-12T22:03:29.692Z,58.74
2018-05-12T22:05:57.545Z,57.56
2018-05-12T22:08:25.060Z,58.92
2018-05-12T22:10:52.580Z,59.05
2018-05-12T22:13:21.361Z,58.17
2018-05-12T22:15:48.871Z,58.35
2018-05-12T22:18:17.679Z,57.57
2018-05-12T22:20:45.569Z,58.46
2018-05-12T22:23:13.152Z,58.24
2018-05-12T22:25:41.415Z,58.74
2018-05-12T22:28:08.984Z,59.04
2018-05-12T22:30:36.588Z,59.25
2018-05-12T22:33:04.090Z,58.86
2018-05-12T22:35:32.165Z,58.62
2018-05-12T22:37:59.710Z,59.62
2018-05-12T22:40:27.236Z,62.06
2018-05-12T22:42:54.808Z,62.81
2018-05-12T22:45:22.329Z,62.14
2018-05-12T22:47:49.854Z,60.98
2018-05-12T22:50:17.938Z,61.55
2018-05-12T22:52:45.460Z,61.45
2018-05-12T22:55:12.985Z,60.80
2018-05-12T22:57:40.688Z,62.04
2018-05-12T23:00:08.226Z,63.29
2018-05-12T23:02:35.753Z,62.81
2018-05-12T23:05:03.585Z,62.95
2018-05-12T23:07:31.101Z,63.28
2018-05-12T23:09:58.625Z,62.97
2018-05-12T23:12:26.200Z,62.57
2018-05-12T23:14:53.725Z,62.73
2018-05-12T23:17:21.246Z,62.51
2018-05-12T23:19:49.027Z,62.78
2018-05-12T23:22:16.557Z,63.12
2018-05-12T23:24:44.074Z,63.02
2018-05-12T23:27:12.550Z,63.82
2018-05-12T23:29:40.070Z,62.99
2018-05-12T23:32:07.590Z,64.13
2018-05-12T23:34:35.150Z,64.34
2018-05-12T23:37:02.674Z,65.16
2018-05-12T23:39:30.245Z,65.65
2018-05-12T23:41:57.814Z,65.45
2018-05-12T23:44:25.332Z,65.71
2018-05-12T23:46:52.849Z,65.21
2018-05-12T23:49:20.427Z,65.36
2018-05-12T23:51:47.948Z,65.58
2018-05-12T23:54:15.477Z,65.91
2018-05-12T23:56:43.246Z,66.01
2018-05-12T23:59:10.768Z,66.05
